CheckWX is a tool to help pilots better visualize weather data.  It is not intended as a substitute for an official pre-flight weather briefing.

19:55:01 UTC

ENGC METAR
Gullfax Platform Airport
Norway
Current

1 hour ago

ENGC 261850Z 02018KT 9999 FEW020 BKN040 08/03 Q1003 W07/S3
Observed
May-26 @ 18:50 UTC
Wind
  • 020° at 18 KTS
Visibility
10,000+ meters
Flight Rules
VFR
Cloud Levels
  • Few at 2,000' AGL
  • Broken at 4,000' AGL
Temperature
C / 46°F
Dewpoint
C / 37°F
Humidity
71%
Altimeter
29.62" Hg
Pressure
1002.92 hPa
Previous

2 hours ago

ENGC 261750Z 02015KT 9999 VCSH FEW020TCU SCT035 08/02 Q1004 W07/S3
Observed
May-26 @ 17:50 UTC
Wind
  • 020° at 15 KTS
Visibility
10,000+ meters
Flight Rules
VFR
Cloud Levels
  • Few at 2,000' AGL
  • Scattered at 3,500' AGL
Temperature
C / 46°F
Dewpoint
C / 36°F
Humidity
66%
Altimeter
29.65" Hg
Pressure
1003.92 hPa
Previous

3 hours ago

ENGC 261650Z 02016KT 9999 SCT025 SCT040 09/02 Q1004 W07/S3
Observed
May-26 @ 16:50 UTC
Wind
  • 020° at 16 KTS
Visibility
10,000+ meters
Flight Rules
VFR
Cloud Levels
  • Scattered at 2,500' AGL
  • Scattered at 4,000' AGL
Temperature
C / 48°F
Dewpoint
C / 36°F
Humidity
62%
Altimeter
29.65" Hg
Pressure
1003.92 hPa